Altheimer, AR (72004)

1:21 PM CDT on July 27, 2016 (GMT -0500)
Cornerstone Farms | | Change Station

Elev 203 ft 34.24 °N, 91.76 °W | Updated 1 minute ago

Rain
Rain
80.1 °F
Feels Like 87 °F
N
4.0
Wind Variable Wind from SW
Gusts 4.0 mph

Today
High -- | Low -- °F
--% Chance of Precip.
Yesterday
High -- | Low -- °F
Precip. -- in
Pressure 29.96 in
Visibility 10.0 miles
Clouds Few 2000 ft
Mostly Cloudy 9000 ft
Overcast 11000 ft
Heat Index 87 °F
Dew Point 78 °F
Humidity 94%
Rainfall 0.04 in
Snow Depth Not available.
6:14 AM 8:12 PM
Last Quarter, 41% visible
SPECI KPBF 271802Z AUTO 22009KT 10SM RA FEW020 BKN090 OVC110 26/24 A2996 RMK AO2 P0000 T02610239 TSNO
Pressure 29.96 in
Visibility 10.0 miles
Clouds Few 2000 ft
Mostly Cloudy 9000 ft
Overcast 11000 ft
Heat Index 87 °F
Dew Point 78 °F
Humidity 94%
Rainfall 0.04 in
Snow Depth Not available.
6:14 AM 8:12 PM
Last Quarter, 41% visible
SPECI KPBF 271802Z AUTO 22009KT 10SM RA FEW020 BKN090 OVC110 26/24 A2996 RMK AO2 P0000 T02610239 TSNO

10-Day Weather Forecast

Almanac

Astronomy

Jul. 27, 2016 Rise Set
Actual Time
Civil Twilight
Nautical Twilight
Astronomical Twilight
Moon
Length of Visible Light
Length of Day
Tomorrow will be .
, % of the Moon is Illuminated

Today's Extremes

State Highs State Lows

Community

WunderPhotos

Upload Photos

1,927,894 photos uploaded!

WunderBlog® & News

Nearby

Air Quality

  Air Quality AQ Index Pollutant
Not available.

Snow Depth

Station Depth Elevation

Earthquake Activity

City Distance Mag. Time & Date
Minimum magnitude displayed is 2.5.

Coastal Water Temperatures

Place Temperature

Stations

Nearby Weather Stations

Station Location Temp. Windchill Dew Point Humidity Wind Precip. Elev Updated Type
                   

Watches & Warnings

There are currently no watches in effect.